Flight Track Log - Related Links

Times and Time Zones

All times are in EDT time to prevent confusion due to time zone crossing. See the AWI3778 flight status page for this flight to view local times or setup timezone preferences in your user account.

Time Position Orientation Groundspeed Altitude Reporting Facility
EDT Latitude Longitude Course Direction KTS MPH feet Rate Location/Type
Sun 12:32:40 PM 39.8667 -75.2667 37° Northeast 153 176 600  Level Philadelphia TRACON
Sun 12:32:58 PM 39.8500 -75.2833 218° Southwest 159 183 1,200 2,000 Climbing Philadelphia TRACON
Sun 12:33:58 PM 39.8167 -75.3333 229° Southwest 201 231 3,200 2,300 Climbing Philadelphia TRACON
Sun 12:34:58 PM 39.7667 -75.3500 194° South 242 278 5,800 1,908 Climbing Philadelphia TRACON
Sun 12:35:00 PM 39.8167 -74.8908 90° East  Level FlightAware Approximate
Sun 12:36:00 PM 39.7981 -74.7739 105° East  Level FlightAware Approximate
Sun 12:36:51 PM 39.7703 -75.1867 88° East 275 316 8,700  Level New York Center
Sun 12:37:00 PM 39.8099 -74.6735 37° Northeast  Level FlightAware Approximate
Sun 12:37:51 PM 39.7753 -75.0492 87° East 301 346 10,600  Level New York Center
Sun 12:38:49 PM 39.7817 -74.9281 86° East 329 379 12,000 1,160 Climbing New York Center
Sun 12:39:50 PM 39.7906 -74.7936 85° East 356 410 12,900 1,289 Climbing New York Center
Sun 12:40:50 PM 39.8386 -74.6719 63° Northeast 370 426 14,600 1,686 Climbing New York Center
Sun 12:41:51 PM 39.9225 -74.5900 37° Northeast 355 409 16,300 1,587 Climbing New York Center
Sun 12:42:51 PM 40.0086 -74.5053 37° Northeast 360 414 17,800 1,240 Climbing New York Center
Sun 12:43:52 PM 40.0858 -74.4336 35° Northeast 386 444 18,800 1,059 Climbing New York Center
Sun 12:44:50 PM 40.1850 -74.3328 38° Northeast 392 451 19,900 1,119 Climbing New York Center
Sun 12:45:50 PM 40.2731 -74.2450 37° Northeast 397 457 21,000 1,041 Climbing New York Center
Sun 12:46:51 PM 40.3631 -74.1542 38° Northeast 402 463 22,000 1,050 Climbing New York Center
Sun 12:47:50 PM 40.4575 -74.0633 36° Northeast 402 463 23,100 1,059 Climbing New York Center
Sun 12:48:50 PM 40.5492 -73.9803 35° Northeast 402 463 24,100 942 Climbing New York Center
Sun 12:49:51 PM 40.6392 -73.8889 38° Northeast 402 463 25,000 260 Climbing New York Center
Sun 12:52:18 PM 40.8853 -73.8072 14° North 376 433 25,000  Level Boston Center
Sun 12:53:18 PM 40.9919 -73.7847 North 376 433 25,000  Level Boston Center
Sun 12:54:18 PM 41.0922 -73.7619 10° North 371 427 25,000  Level Boston Center
Sun 12:55:18 PM 41.1944 -73.7422 North 371 427 25,000  Level Boston Center
Sun 12:56:18 PM 41.2947 -73.7192 10° North 371 427 25,000  Level Boston Center
Sun 12:57:30 PM 41.4161 -73.6939 North 366 421 25,000  Level Boston Center
Sun 12:58:30 PM 41.5206 -73.6711 North 371 427 25,000  Level Boston Center
Sun 12:59:30 PM 41.6208 -73.6508 North 371 427 25,000  Level Boston Center
Sun 01:00:42 PM 41.7208 -73.6306 North 371 427 25,000  Level Boston Center
Sun 01:01:42 PM 41.8442 -73.6022 10° North 371 427 25,000  Level Boston Center
Sun 01:02:42 PM 41.9444 -73.5789 10° North 371 427 25,000  Level Boston Center
Sun 01:03:42 PM 42.0572 -73.5558 North 371 427 25,000  Level Boston Center
Sun 01:04:42 PM 42.1492 -73.5322 11° North 377 434 25,000  Level Boston Center
Sun 01:05:42 PM 42.2536 -73.5058 11° North 371 427 25,000  Level Boston Center
Sun 01:06:42 PM 42.3622 -73.4881 North 371 427 25,000  Level Boston Center
Sun 01:07:42 PM 42.4458 -73.4697 North 371 427 25,000  Level Boston Center
Sun 01:08:42 PM 42.5669 -73.4464 North 371 427 25,000  Level Boston Center
Sun 01:09:42 PM 42.6692 -73.4200 11° North 371 427 25,000 50 Level Boston Center
Sun 01:10:42 PM 42.7714 -73.3989 North 371 427 25,100  Climbing Boston Center
Sun 01:11:42 PM 42.8678 -73.3436 23° Northeast 371 427 25,000 -50 Descending Boston Center
Sun 01:12:42 PM 42.9500 -73.2344 44° Northeast 378 435 25,000  Level Boston Center
Sun 01:13:42 PM 43.0319 -73.1247 44° Northeast 391 450 25,000  Level Boston Center
Sun 01:14:42 PM 43.1219 -73.0431 34° Northeast 398 458 25,000 -200 Level Boston Center
Sun 01:15:42 PM 43.2219 -73.0583 354° North 357 411 24,600 -500 Descending Boston Center
Sun 01:16:42 PM 43.3261 -73.0736 354° North 356 410 24,000 -300 Descending Boston Center
Sun 01:17:42 PM 43.4136 -73.0803 357° North 361 415 24,000 -200 Level Boston Center
Sun 01:18:42 PM 43.5156 -73.0900 356° North 361 415 23,600 -1,250 Descending Boston Center
Sun 01:19:42 PM 43.6136 -73.0997 356° North 361 415 21,500 -2,150 Descending Boston Center
Sun 01:20:42 PM 43.7156 -73.1122 355° North 350 403 19,300 -2,050 Descending Boston Center
Sun 01:21:42 PM 43.8050 -73.1219 356° North 330 380 17,400 -1,950 Descending Boston Center
Sun 01:22:42 PM 43.8883 -73.1314 355° North 329 379 15,400 -1,900 Descending Boston Center
Sun 01:23:42 PM 43.9736 -73.1614 346° North 324 373 13,600 -1,900 Descending Boston Center
Sun 01:24:42 PM 44.0608 -73.1883 347° North 318 366 11,600 -1,950 Descending Boston Center
Sun 01:25:42 PM 44.1442 -73.2125 348° North 312 359 9,700 -1,950 Descending Boston Center
Sun 01:26:42 PM 44.2253 -73.2339 349° North 305 351 7,700 -2,000 Descending Boston Center
Sun 01:27:42 PM 44.3042 -73.2697 342° North 295 339 5,700 -2,000 Descending Boston Center
Sun 01:28:42 PM 44.3789 -73.3028 342° North 290 334 3,700 -1,350 Descending Boston Center
Sun 01:29:42 PM 44.4475 -73.3356 341° North 269 310 3,000 -700 Descending Boston Center

Login

Don't have an account? Register now (free) for customized features, flight alerts, and more!